createdAt,value
2022-12-08T00:01:16.293Z,101159.88
2022-12-08T00:03:43.433Z,101155.09
2022-12-08T00:06:42.940Z,101147.53
2022-12-08T00:09:23.669Z,101143.84
2022-12-08T00:11:56.555Z,101140.34
2022-12-08T00:14:26.717Z,101131.31
2022-12-08T00:16:54.435Z,101118.75
2022-12-08T00:19:21.760Z,101115.09
2022-12-08T00:21:48.575Z,101117.34
2022-12-08T00:24:15.172Z,101108.50
2022-12-08T00:26:41.716Z,101107.72
2022-12-08T00:29:13.087Z,101106.13
2022-12-08T00:31:42.539Z,101104.31
2022-12-08T00:34:09.186Z,101108.31
2022-12-08T00:36:35.657Z,101094.88
2022-12-08T00:39:02.156Z,101101.06
2022-12-08T00:41:47.020Z,101088.91
2022-12-08T00:44:16.335Z,101085.75
2022-12-08T00:46:42.962Z,101082.25
2022-12-08T00:49:09.497Z,101081.97
2022-12-08T00:51:36.145Z,101082.75
2022-12-08T00:54:03.128Z,101080.38
2022-12-08T00:56:29.544Z,101084.66
2022-12-08T00:58:56.099Z,101078.47
2022-12-08T01:01:23.007Z,101083.34
2022-12-08T01:03:49.649Z,101075.00
2022-12-08T01:06:16.496Z,101072.00
2022-12-08T01:08:43.030Z,101069.34
2022-12-08T01:11:14.834Z,101059.47
2022-12-08T01:13:42.071Z,101052.81
2022-12-08T01:16:08.760Z,101051.81
2022-12-08T01:18:36.331Z,101058.56
2022-12-08T01:21:07.277Z,101044.66
2022-12-08T01:23:34.773Z,101037.75
2022-12-08T01:26:05.380Z,101046.63
2022-12-08T01:28:32.539Z,101049.09
2022-12-08T01:31:00.176Z,101050.69
2022-12-08T01:33:27.233Z,101047.94
2022-12-08T01:35:55.373Z,101056.16
2022-12-08T01:38:22.654Z,101056.41
2022-12-08T01:40:49.773Z,101065.66
2022-12-08T01:43:19.946Z,101075.50
2022-12-08T01:45:46.861Z,101072.00
2022-12-08T01:48:31.647Z,101076.09
2022-12-08T01:50:59.125Z,101062.25
2022-12-08T01:53:32.763Z,101061.50
2022-12-08T01:56:06.900Z,101050.47
2022-12-08T01:58:37.882Z,101041.78
2022-12-08T02:01:05.019Z,101036.13
2022-12-08T02:03:36.888Z,101032.72
2022-12-08T02:06:03.968Z,101025.84
2022-12-08T02:08:31.688Z,101030.13
2022-12-08T02:10:58.121Z,101044.16
2022-12-08T02:13:25.426Z,101034.22
2022-12-08T02:16:30.606Z,101042.84
2022-12-08T02:19:36.327Z,101031.03
2022-12-08T02:22:14.211Z,101026.47
2022-12-08T02:24:56.913Z,101026.16
2022-12-08T02:27:35.938Z,101018.72
2022-12-08T02:30:05.352Z,101005.28
2022-12-08T02:32:59.324Z,101007.97
2022-12-08T02:35:44.075Z,101008.25
2022-12-08T02:38:35.164Z,101006.09
2022-12-08T02:41:07.588Z,101001.81
2022-12-08T02:43:47.954Z,101010.94
2022-12-08T02:46:22.580Z,100999.41
2022-12-08T02:48:51.857Z,101001.03
2022-12-08T02:51:19.151Z,100999.41
2022-12-08T02:53:46.613Z,101000.19
2022-12-08T02:56:31.820Z,100998.03
2022-12-08T02:59:25.767Z,100986.69
2022-12-08T03:02:28.790Z,100982.72
2022-12-08T03:05:13.147Z,100977.66
2022-12-08T03:08:02.821Z,100971.88
2022-12-08T03:10:35.517Z,100970.59
2022-12-08T03:13:14.681Z,100971.16
2022-12-08T03:15:43.119Z,100966.91
2022-12-08T03:18:13.165Z,100966.09
2022-12-08T03:20:41.531Z,100966.41
2022-12-08T03:23:11.387Z,100959.63
2022-12-08T03:25:41.794Z,100949.22
2022-12-08T03:28:08.432Z,100940.06
2022-12-08T03:30:39.759Z,100938.47
2022-12-08T03:33:20.404Z,100946.03
2022-12-08T03:35:47.769Z,100940.16
2022-12-08T03:38:16.594Z,100939.66
2022-12-08T03:40:44.122Z,100950.63
2022-12-08T03:43:10.650Z,100956.78
2022-12-08T03:45:37.101Z,100951.28
2022-12-08T03:48:03.672Z,100950.19
2022-12-08T03:50:30.187Z,100951.00
2022-12-08T03:52:56.632Z,100947.44
2022-12-08T03:55:23.051Z,100946.34
2022-12-08T03:57:49.452Z,100937.00
2022-12-08T04:00:16.996Z,100936.22
2022-12-08T04:02:43.639Z,100929.44
2022-12-08T04:05:10.899Z,100923.28
2022-12-08T04:07:37.517Z,100926.28
2022-12-08T04:10:05.639Z,100921.19
2022-12-08T04:12:32.530Z,100923.38
2022-12-08T04:14:58.980Z,100920.19
2022-12-08T04:17:25.547Z,100913.44
2022-12-08T04:19:51.951Z,100915.53
2022-12-08T04:22:18.410Z,100914.94
2022-12-08T04:24:44.857Z,100903.59
2022-12-08T04:27:11.329Z,100903.41
2022-12-08T04:29:37.814Z,100901.31
2022-12-08T04:32:04.569Z,100894.38
2022-12-08T04:34:30.966Z,100894.66
2022-12-08T04:36:57.468Z,100903.31
2022-12-08T04:39:24.127Z,100893.97
2022-12-08T04:41:50.549Z,100896.72
2022-12-08T04:44:17.144Z,100889.28
2022-12-08T04:46:43.961Z,100894.34
2022-12-08T04:49:10.691Z,100892.16
2022-12-08T04:51:37.133Z,100898.13
2022-12-08T04:54:03.587Z,100896.72
2022-12-08T04:56:30.604Z,100894.34
2022-12-08T04:58:57.036Z,100899.41
2022-12-08T05:01:23.607Z,100891.38
2022-12-08T05:03:50.179Z,100883.53
2022-12-08T05:06:16.709Z,100889.47
2022-12-08T05:08:43.459Z,100889.69
2022-12-08T05:11:11.768Z,100891.16
2022-12-08T05:13:38.379Z,100890.66
2022-12-08T05:16:06.900Z,100894.75
2022-12-08T05:18:33.541Z,100890.47
2022-12-08T05:21:00.084Z,100893.94
2022-12-08T05:23:27.435Z,100880.63
2022-12-08T05:25:53.968Z,100875.88
2022-12-08T05:28:40.899Z,100870.38
2022-12-08T05:31:07.139Z,100872.69
2022-12-08T05:33:33.613Z,100871.91
2022-12-08T05:36:00.089Z,100874.66
2022-12-08T05:38:26.586Z,100878.72
2022-12-08T05:40:53.023Z,100880.44
2022-12-08T05:43:19.486Z,100880.72
2022-12-08T05:45:45.997Z,100884.22
2022-12-08T05:48:12.557Z,100881.53
2022-12-08T05:50:39.035Z,100883.13
2022-12-08T05:53:05.731Z,100876.97
2022-12-08T05:55:32.254Z,100881.13
2022-12-08T05:58:03.071Z,100881.91
2022-12-08T06:00:34.854Z,100870.38
2022-12-08T06:03:01.521Z,100874.97
2022-12-08T06:05:28.089Z,100878.72
2022-12-08T06:07:54.812Z,100874.38
2022-12-08T06:10:21.316Z,100875.38
2022-12-08T06:12:47.802Z,100875.59
2022-12-08T06:15:14.235Z,100875.06
2022-12-08T06:17:40.700Z,100876.47
2022-12-08T06:20:07.885Z,100879.16
2022-12-08T06:22:34.659Z,100879.75
2022-12-08T06:25:03.203Z,100877.44
2022-12-08T06:27:32.873Z,100882.81
2022-12-08T06:29:59.599Z,100881.72
2022-12-08T06:32:27.749Z,100881.41
2022-12-08T06:34:54.308Z,100869.09
2022-12-08T06:37:20.730Z,100870.38
2022-12-08T06:39:47.212Z,100874.97
2022-12-08T06:42:32.564Z,100876.66
2022-12-08T06:44:59.943Z,100883.31
2022-12-08T06:47:26.591Z,100887.34
2022-12-08T06:49:53.280Z,100878.81
2022-12-08T06:52:19.694Z,100886.06
2022-12-08T06:54:46.125Z,100886.34
2022-12-08T06:57:12.593Z,100883.97
2022-12-08T06:59:39.739Z,100895.56
2022-12-08T07:02:06.344Z,100887.09
2022-12-08T07:04:32.819Z,100890.19
2022-12-08T07:06:59.242Z,100899.09
2022-12-08T07:09:25.665Z,100892.44
2022-12-08T07:11:52.075Z,100891.66
2022-12-08T07:14:20.315Z,100883.38
2022-12-08T07:16:47.248Z,100893.09
2022-12-08T07:19:13.790Z,100889.69
2022-12-08T07:21:40.293Z,100896.88
2022-12-08T07:24:07.132Z,100878.91
2022-12-08T07:26:33.572Z,100880.50
2022-12-08T07:29:00.403Z,100870.09
2022-12-08T07:31:28.574Z,100865.22
2022-12-08T07:33:56.707Z,100865.94
2022-12-08T07:36:24.204Z,100876.22
2022-12-08T07:38:53.339Z,100862.25
2022-12-08T07:41:23.597Z,100861.78
2022-12-08T07:43:51.055Z,100859.91
2022-12-08T07:46:20.624Z,100869.59
2022-12-08T07:48:47.431Z,100860.16
2022-12-08T07:51:15.491Z,100866.00
2022-12-08T07:53:47.211Z,100871.66
2022-12-08T07:56:16.812Z,100869.78
2022-12-08T07:58:45.827Z,100873.75
2022-12-08T08:01:30.553Z,100865.41
2022-12-08T08:04:01.349Z,100869.19
2022-12-08T08:06:28.532Z,100872.47
2022-12-08T08:08:55.149Z,100875.00
2022-12-08T08:11:21.978Z,100872.94
2022-12-08T08:13:49.978Z,100879.34
2022-12-08T08:16:17.265Z,100873.97
2022-12-08T08:18:43.824Z,100872.34
2022-12-08T08:21:43.272Z,100874.22
2022-12-08T08:23:56.708Z,100873.50
2022-12-08T08:26:23.214Z,100873.50
2022-12-08T08:28:50.087Z,100883.03
2022-12-08T08:31:16.647Z,100874.41
2022-12-08T08:33:43.154Z,100890.28
2022-12-08T08:36:10.009Z,100888.47
2022-12-08T08:38:40.039Z,100893.56
2022-12-08T08:41:10.870Z,100897.22
2022-12-08T08:43:38.585Z,100897.38
2022-12-08T08:46:06.625Z,100902.38
2022-12-08T08:48:33.326Z,100895.56
2022-12-08T08:51:10.900Z,100900.50
2022-12-08T08:53:38.110Z,100884.69
2022-12-08T08:56:10.239Z,100889.00
2022-12-08T08:58:37.085Z,100899.91
2022-12-08T09:01:03.833Z,100898.81
2022-12-08T09:03:30.349Z,100903.69
2022-12-08T09:05:57.072Z,100900.22
2022-12-08T09:08:24.119Z,100892.47
2022-12-08T09:10:50.892Z,100890.78
2022-12-08T09:13:17.461Z,100883.53
2022-12-08T09:15:44.060Z,100891.13
2022-12-08T09:18:10.566Z,100902.53
2022-12-08T09:20:37.114Z,100902.59
2022-12-08T09:23:03.594Z,100902.66
2022-12-08T09:25:30.055Z,100894.06
2022-12-08T09:27:56.771Z,100901.00
2022-12-08T09:30:23.375Z,100905.28
2022-12-08T09:32:50.102Z,100903.38
2022-12-08T09:35:16.642Z,100897.72
2022-12-08T09:37:43.172Z,100901.94
2022-12-08T09:40:15.431Z,100905.09
2022-12-08T09:42:51.487Z,100896.78
2022-12-08T09:45:19.403Z,100901.94
2022-12-08T09:47:58.998Z,100898.97
2022-12-08T09:50:39.587Z,100898.09
2022-12-08T09:53:24.045Z,100900.78
2022-12-08T09:55:53.756Z,100898.00
2022-12-08T09:58:47.490Z,100900.09
2022-12-08T10:01:14.475Z,100886.72
2022-12-08T10:03:41.980Z,100885.38
2022-12-08T10:06:14.088Z,100884.03
2022-12-08T10:08:58.787Z,100884.53
2022-12-08T10:11:53.273Z,100878.88
2022-12-08T10:14:28.914Z,100874.00
2022-12-08T10:17:03.860Z,100874.31
2022-12-08T10:19:34.204Z,100866.25
2022-12-08T10:22:01.886Z,100864.69
2022-12-08T10:24:43.482Z,100858.22
2022-12-08T10:27:13.161Z,100856.84
2022-12-08T10:29:41.055Z,100853.59
2022-12-08T10:32:20.600Z,100858.94
2022-12-08T10:35:07.501Z,100851.28
2022-12-08T10:37:34.931Z,100855.59
2022-12-08T10:40:13.398Z,100847.72
2022-12-08T10:42:43.556Z,100847.72
2022-12-08T10:45:10.179Z,100844.25
2022-12-08T10:47:40.712Z,100848.72
2022-12-08T10:50:28.012Z,100843.34
2022-12-08T10:52:58.250Z,100851.41
2022-12-08T10:55:24.888Z,100849.03
2022-12-08T10:57:51.385Z,100852.59
2022-12-08T11:00:21.179Z,100858.75
2022-12-08T11:02:58.492Z,100861.84
2022-12-08T11:05:32.164Z,100856.97
2022-12-08T11:07:59.217Z,100856.38
2022-12-08T11:10:44.331Z,100855.88
2022-12-08T11:13:21.834Z,100863.44
2022-12-08T11:15:49.343Z,100864.34
2022-12-08T11:18:29.000Z,100861.75
2022-12-08T11:21:01.825Z,100865.72
2022-12-08T11:23:29.819Z,100861.75
2022-12-08T11:26:01.353Z,100862.53
2022-12-08T11:28:28.595Z,100868.19
2022-12-08T11:31:00.253Z,100865.03
2022-12-08T11:33:29.263Z,100859.44
2022-12-08T11:36:08.991Z,100860.03
2022-12-08T11:38:41.591Z,100863.53
2022-12-08T11:41:31.352Z,100858.47
2022-12-08T11:44:00.837Z,100854.19
2022-12-08T11:46:42.558Z,100851.81
2022-12-08T11:49:12.318Z,100855.84
2022-12-08T11:51:59.068Z,100847.13
2022-12-08T11:54:33.732Z,100848.22
2022-12-08T11:57:08.428Z,100844.53
2022-12-08T11:59:39.558Z,100843.00
2022-12-08T12:02:13.640Z,100830.22
2022-12-08T12:05:08.635Z,100823.28
2022-12-08T12:07:59.625Z,100823.47
2022-12-08T12:11:00.869Z,100811.09
2022-12-08T12:13:51.867Z,100811.56
2022-12-08T12:16:33.783Z,100798.28
2022-12-08T12:19:05.584Z,100797.00
2022-12-08T12:21:50.180Z,100797.00
2022-12-08T12:24:25.899Z,100796.91
2022-12-08T12:26:58.693Z,100780.91
2022-12-08T12:29:30.770Z,100783.41
2022-12-08T12:32:03.545Z,100772.56
2022-12-08T12:34:36.456Z,100768.78
2022-12-08T12:37:11.212Z,100758.56
2022-12-08T12:39:55.175Z,100764.66
2022-12-08T12:42:43.010Z,100763.56
2022-12-08T12:45:20.002Z,100763.03
2022-12-08T12:47:54.118Z,100770.91
2022-12-08T12:50:34.872Z,100763.94
2022-12-08T12:53:17.294Z,100766.72
2022-12-08T12:55:56.449Z,100758.69
2022-12-08T12:58:29.092Z,100764.94
2022-12-08T13:01:13.837Z,100767.00
2022-12-08T13:03:43.943Z,100761.25
2022-12-08T13:06:14.864Z,100765.41
2022-12-08T13:08:51.834Z,100761.94
2022-12-08T13:11:18.517Z,100754.88
2022-12-08T13:14:01.208Z,100758.88
2022-12-08T13:16:31.477Z,100752.22
2022-12-08T13:19:02.395Z,100754.59
2022-12-08T13:21:38.168Z,100751.41
2022-12-08T13:24:27.985Z,100760.66
2022-12-08T13:27:03.432Z,100763.66
2022-12-08T13:29:30.835Z,100758.56
2022-12-08T13:31:59.256Z,100766.03
2022-12-08T13:34:31.707Z,100759.16
2022-12-08T13:37:06.790Z,100750.16
2022-12-08T13:39:39.143Z,100750.34
2022-12-08T13:42:11.661Z,100747.47
2022-12-08T13:47:41.443Z,100740.69
2022-12-08T13:58:44.261Z,100736.50
2022-12-08T14:01:20.583Z,100728.66
2022-12-08T14:04:33.773Z,100731.25
2022-12-08T14:06:48.762Z,100730.69
2022-12-08T14:09:24.521Z,100736.03
2022-12-08T14:11:56.546Z,100741.75
2022-12-08T14:15:01.725Z,100748.44
2022-12-08T14:17:25.439Z,100746.44
2022-12-08T14:20:01.442Z,100751.72
2022-12-08T14:22:37.104Z,100746.81
2022-12-08T14:25:05.278Z,100742.13
2022-12-08T14:27:37.553Z,100748.28
2022-12-08T14:30:14.506Z,100744.69
2022-12-08T14:32:57.176Z,100749.56
2022-12-08T14:35:38.205Z,100740.66
2022-12-08T14:38:19.350Z,100749.59
2022-12-08T14:40:48.982Z,100760.78
2022-12-08T14:43:20.785Z,100754.88
2022-12-08T14:45:50.681Z,100759.03
2022-12-08T14:48:20.945Z,100757.25
2022-12-08T14:50:56.173Z,100756.19
2022-12-08T14:53:23.752Z,100744.28
2022-12-08T14:55:51.365Z,100742.31
2022-12-08T14:58:27.685Z,100733.81
2022-12-08T15:00:58.370Z,100734.19
2022-12-08T15:03:30.520Z,100737.28
2022-12-08T15:06:03.037Z,100741.31
2022-12-08T15:08:31.066Z,100749.88
2022-12-08T15:11:31.983Z,100753.59
2022-12-08T15:13:58.529Z,100753.19
2022-12-08T15:16:43.692Z,100746.84
2022-12-08T15:19:28.521Z,100747.03
2022-12-08T15:22:21.613Z,100753.09
2022-12-08T15:24:48.074Z,100749.72
2022-12-08T15:27:21.000Z,100748.25
2022-12-08T15:29:48.403Z,100744.25
2022-12-08T15:32:21.242Z,100747.97
2022-12-08T15:34:47.924Z,100747.34
2022-12-08T15:37:23.111Z,100748.13
2022-12-08T15:39:50.521Z,100743.00
2022-12-08T15:42:17.493Z,100747.84
2022-12-08T15:44:43.979Z,100750.03
2022-12-08T15:47:30.082Z,100740.53
2022-12-08T15:49:56.628Z,100748.03
2022-12-08T15:52:24.716Z,100748.66
2022-12-08T15:54:51.276Z,100746.94
2022-12-08T15:58:24.878Z,100737.13
2022-12-08T16:00:50.432Z,100742.81
2022-12-08T16:03:49.438Z,100742.09
2022-12-08T16:06:57.341Z,100748.06
2022-12-08T16:09:11.107Z,100744.28
2022-12-08T16:12:06.521Z,100752.81
2022-12-08T16:15:39.686Z,100742.81
2022-12-08T16:17:21.146Z,100742.19
2022-12-08T16:19:47.600Z,100738.13
2022-12-08T16:25:22.045Z,100731.16
2022-12-08T16:28:03.185Z,100735.81
2022-12-08T16:30:32.549Z,100734.09
2022-12-08T16:32:59.018Z,100726.63
2022-12-08T16:35:25.438Z,100724.25
2022-12-08T16:37:51.880Z,100732.28
2022-12-08T16:40:18.566Z,100732.47
2022-12-08T16:42:46.458Z,100736.16
2022-12-08T16:45:20.277Z,100742.72
2022-12-08T16:47:49.700Z,100733.66
2022-12-08T16:50:25.181Z,100733.78
2022-12-08T16:52:58.113Z,100735.41
2022-12-08T16:55:24.673Z,100733.72
2022-12-08T16:57:51.179Z,100733.84
2022-12-08T17:00:24.261Z,100735.72
2022-12-08T17:02:51.641Z,100732.84
2022-12-08T17:05:19.955Z,100738.22
2022-12-08T17:07:48.311Z,100722.63
2022-12-08T17:10:18.509Z,100723.59
2022-12-08T17:12:45.731Z,100717.16
2022-12-08T17:15:19.449Z,100713.66
2022-12-08T17:17:45.990Z,100715.47
2022-12-08T17:20:15.536Z,100716.84
2022-12-08T17:22:42.073Z,100721.09
2022-12-08T17:25:08.972Z,100718.44
2022-12-08T17:27:36.176Z,100721.09
2022-12-08T17:30:02.993Z,100712.00
2022-12-08T17:32:29.656Z,100718.63
2022-12-08T17:34:56.214Z,100727.00
2022-12-08T17:37:22.725Z,100724.59
2022-12-08T17:39:49.168Z,100725.59
2022-12-08T17:42:15.941Z,100723.69
2022-12-08T17:44:42.567Z,100719.31
2022-12-08T17:47:09.113Z,100728.44
2022-12-08T17:49:35.736Z,100725.75
2022-12-08T17:52:04.607Z,100724.59
2022-12-08T17:54:31.422Z,100733.75
2022-12-08T17:56:58.611Z,100727.38
2022-12-08T17:59:26.936Z,100724.72
2022-12-08T18:01:54.676Z,100729.09
2022-12-08T18:04:21.365Z,100721.84
2022-12-08T18:06:48.153Z,100721.22
2022-12-08T18:09:15.063Z,100719.25
2022-12-08T18:11:42.873Z,100717.44
2022-12-08T18:14:11.170Z,100719.53
2022-12-08T18:16:39.831Z,100712.00
2022-12-08T18:19:07.624Z,100712.31
2022-12-08T18:21:34.923Z,100710.94
2022-12-08T18:24:01.720Z,100714.69
2022-12-08T18:26:29.143Z,100717.88
2022-12-08T18:28:55.579Z,100707.75
2022-12-08T18:31:23.128Z,100709.63
2022-12-08T18:33:50.840Z,100713.09
2022-12-08T18:36:21.468Z,100707.56
2022-12-08T18:38:48.307Z,100710.94
2022-12-08T18:41:17.656Z,100696.03
2022-12-08T18:43:44.466Z,100703.19
2022-12-08T18:46:13.544Z,100723.34
2022-12-08T18:48:43.039Z,100720.94
2022-12-08T18:51:14.791Z,100731.88
2022-12-08T18:53:41.736Z,100727.31
2022-12-08T18:56:09.168Z,100729.09
2022-12-08T18:58:35.834Z,100730.59
2022-12-08T19:01:02.386Z,100730.38
2022-12-08T19:03:29.461Z,100726.81
2022-12-08T19:06:06.364Z,100728.69
2022-12-08T19:08:33.516Z,100725.22
2022-12-08T19:11:01.079Z,100720.75
2022-12-08T19:13:27.626Z,100726.28
2022-12-08T19:15:54.651Z,100727.69
2022-12-08T19:18:21.218Z,100727.81
2022-12-08T19:20:47.732Z,100728.00
2022-12-08T19:23:14.694Z,100726.09
2022-12-08T19:25:41.527Z,100723.03
2022-12-08T19:28:08.017Z,100734.25
2022-12-08T19:30:34.485Z,100730.69
2022-12-08T19:33:00.931Z,100732.06
2022-12-08T19:35:27.463Z,100738.81
2022-12-08T19:37:55.014Z,100730.97
2022-12-08T19:40:40.418Z,100728.31
2022-12-08T19:43:34.535Z,100732.97
2022-12-08T19:46:01.214Z,100722.53
2022-12-08T19:48:28.220Z,100723.53
2022-12-08T19:50:54.702Z,100726.19
2022-12-08T19:53:21.401Z,100724.84
2022-12-08T19:55:47.970Z,100732.25
2022-12-08T19:58:14.671Z,100730.38
2022-12-08T20:00:42.520Z,100725.50
2022-12-08T20:03:09.121Z,100733.97
2022-12-08T20:05:36.774Z,100723.63
2022-12-08T20:08:03.375Z,100729.38
2022-12-08T20:10:33.789Z,100735.13
2022-12-08T20:13:19.832Z,100732.44
2022-12-08T20:15:46.675Z,100732.63
2022-12-08T20:18:14.836Z,100733.72
2022-12-08T20:20:43.278Z,100735.31
2022-12-08T20:23:09.940Z,100738.91
2022-12-08T20:25:41.141Z,100732.94
2022-12-08T20:28:07.863Z,100743.25
2022-12-08T20:30:34.933Z,100740.88
2022-12-08T20:33:01.387Z,100746.25
2022-12-08T20:35:27.806Z,100745.16
2022-12-08T20:37:54.382Z,100752.22
2022-12-08T20:40:20.972Z,100744.84
2022-12-08T20:42:47.483Z,100750.41
2022-12-08T20:45:13.960Z,100745.94
2022-12-08T20:47:40.415Z,100746.34
2022-12-08T20:50:08.044Z,100747.31
2022-12-08T20:52:34.895Z,100744.84
2022-12-08T20:55:01.510Z,100749.00
2022-12-08T20:57:28.082Z,100749.91
2022-12-08T20:59:54.529Z,100750.22
2022-12-08T21:02:21.155Z,100750.69
2022-12-08T21:04:47.819Z,100757.66
2022-12-08T21:07:14.438Z,100753.38
2022-12-08T21:09:41.198Z,100756.38
2022-12-08T21:12:07.920Z,100753.81
2022-12-08T21:14:34.604Z,100763.13
2022-12-08T21:17:01.174Z,100757.47
2022-12-08T21:19:27.817Z,100764.63
2022-12-08T21:21:54.448Z,100771.09
2022-12-08T21:24:21.038Z,100766.50
2022-12-08T21:26:47.748Z,100763.63
2022-12-08T21:29:14.339Z,100767.59
2022-12-08T21:31:41.025Z,100762.44
2022-12-08T21:34:07.700Z,100766.38
2022-12-08T21:36:34.438Z,100755.16
2022-12-08T21:39:02.685Z,100762.44
2022-12-08T21:41:48.666Z,100770.47
2022-12-08T21:44:18.697Z,100768.28
2022-12-08T21:46:45.483Z,100762.81
2022-12-08T21:49:12.002Z,100766.16
2022-12-08T21:51:42.211Z,100763.00
2022-12-08T21:54:18.367Z,100759.34
2022-12-08T21:56:47.275Z,100767.09
2022-12-08T21:59:13.879Z,100768.84
2022-12-08T22:01:40.507Z,100760.41
2022-12-08T22:04:07.436Z,100768.94
2022-12-08T22:06:34.254Z,100766.84
2022-12-08T22:09:00.778Z,100768.44
2022-12-08T22:11:28.625Z,100765.94
2022-12-08T22:13:55.154Z,100764.97
2022-12-08T22:16:21.925Z,100762.28
2022-12-08T22:18:48.525Z,100764.97
2022-12-08T22:21:18.003Z,100763.38
2022-12-08T22:23:44.824Z,100773.81
2022-12-08T22:26:11.817Z,100770.63
2022-12-08T22:28:40.792Z,100771.31
2022-12-08T22:31:16.105Z,100768.94
2022-12-08T22:33:43.435Z,100777.66
2022-12-08T22:36:25.413Z,100769.53
2022-12-08T22:38:53.560Z,100772.63
2022-12-08T22:41:21.266Z,100768.66
2022-12-08T22:43:48.753Z,100771.03
2022-12-08T22:46:18.539Z,100763.78
2022-12-08T22:48:45.376Z,100767.88
2022-12-08T22:51:12.263Z,100762.19
2022-12-08T22:53:39.313Z,100763.47
2022-12-08T22:56:11.370Z,100764.78
2022-12-08T22:58:39.471Z,100758.19
2022-12-08T23:01:07.566Z,100759.91
2022-12-08T23:03:34.682Z,100767.66
2022-12-08T23:06:01.694Z,100763.06
2022-12-08T23:08:28.347Z,100763.88
2022-12-08T23:10:55.187Z,100766.84
2022-12-08T23:13:22.084Z,100765.94
2022-12-08T23:15:50.018Z,100751.16
2022-12-08T23:18:19.233Z,100752.53
2022-12-08T23:20:46.963Z,100759.19
2022-12-08T23:23:13.910Z,100752.34
2022-12-08T23:25:41.394Z,100760.41
2022-12-08T23:28:08.435Z,100757.09
2022-12-08T23:30:35.409Z,100756.31
2022-12-08T23:33:02.259Z,100755.09
2022-12-08T23:35:28.821Z,100755.47
2022-12-08T23:37:55.270Z,100748.84
2022-12-08T23:40:22.063Z,100747.53
2022-12-08T23:42:48.555Z,100744.00
2022-12-08T23:45:15.393Z,100752.66
2022-12-08T23:47:41.861Z,100748.88
2022-12-08T23:50:08.936Z,100751.72
2022-12-08T23:52:35.741Z,100754.31
2022-12-08T23:55:02.669Z,100751.16
2022-12-08T23:57:29.226Z,100742.09
2022-12-08T23:59:55.665Z,100748.47
